Terminal Aerodrome Forecast
Issued by NWS Lake Charles, LA

Current Version | Previous Version | Text Only | Print | Product List | Glossary On
Versions: 1 2 3 4 5 6 7 8 9 10 11 12 13 14 15
913
FTUS44 KLCH 282322
TAFARA
TAF
KARA 282322Z 2900/2924 13008KT P6SM VCSH FEW008 BKN035 OVC100
      TEMPO 2900/2903 SCT008 BKN025 OVC050
     FM290300 VRB05KT P6SM SCT015 OVC100
      TEMPO 2903/2907 BKN020 BKN100
     FM290900 15008KT P6SM -SHRA OVC015=

USA.gov is the U.S. government's official web portal to all federal, state and local government web resources and services.